sensor_id;sensor_type;location;lat;lon;timestamp;P1;durP1;ratioP1;P2;durP2;ratioP2
73219;SDS011;61434;43.538;-5.688;2022-10-31T00:02:04;13.43;;;4.80;;
73219;SDS011;61434;43.538;-5.688;2022-10-31T00:04:29;10.55;;;4.30;;
73219;SDS011;61434;43.538;-5.688;2022-10-31T00:06:55;10.97;;;4.80;;
73219;SDS011;61434;43.538;-5.688;2022-10-31T00:09:20;12.03;;;4.97;;
73219;SDS011;61434;43.538;-5.688;2022-10-31T00:11:46;13.07;;;5.40;;
73219;SDS011;61434;43.538;-5.688;2022-10-31T00:14:11;13.60;;;5.93;;
73219;SDS011;61434;43.538;-5.688;2022-10-31T00:16:37;12.50;;;6.20;;
73219;SDS011;61434;43.538;-5.688;2022-10-31T00:19:03;11.40;;;5.80;;
73219;SDS011;61434;43.538;-5.688;2022-10-31T00:21:31;15.13;;;6.05;;
73219;SDS011;61434;43.538;-5.688;2022-10-31T00:23:57;10.20;;;4.88;;
73219;SDS011;61434;43.538;-5.688;2022-10-31T00:26:24;9.07;;;3.78;;
73219;SDS011;61434;43.538;-5.688;2022-10-31T00:28:49;10.73;;;4.20;;
73219;SDS011;61434;43.538;-5.688;2022-10-31T00:31:16;10.25;;;4.72;;
73219;SDS011;61434;43.538;-5.688;2022-10-31T00:33:42;12.10;;;4.00;;
73219;SDS011;61434;43.538;-5.688;2022-10-31T00:36:11;12.00;;;4.13;;
73219;SDS011;61434;43.538;-5.688;2022-10-31T00:38:38;11.07;;;3.90;;
73219;SDS011;61434;43.538;-5.688;2022-10-31T00:41:04;9.48;;;4.10;;
73219;SDS011;61434;43.538;-5.688;2022-10-31T00:43:30;8.90;;;4.10;;
73219;SDS011;61434;43.538;-5.688;2022-10-31T00:45:55;10.53;;;4.80;;
73219;SDS011;61434;43.538;-5.688;2022-10-31T00:48:20;11.85;;;5.07;;
73219;SDS011;61434;43.538;-5.688;2022-10-31T00:50:46;14.33;;;5.80;;
73219;SDS011;61434;43.538;-5.688;2022-10-31T00:53:11;13.30;;;6.13;;
73219;SDS011;61434;43.538;-5.688;2022-10-31T00:55:37;11.23;;;5.23;;
73219;SDS011;61434;43.538;-5.688;2022-10-31T00:58:02;12.50;;;4.77;;
73219;SDS011;61434;43.538;-5.688;2022-10-31T01:00:28;9.60;;;4.15;;
73219;SDS011;61434;43.538;-5.688;2022-10-31T01:02:53;10.57;;;3.70;;
73219;SDS011;61434;43.538;-5.688;2022-10-31T01:05:19;10.93;;;4.10;;
73219;SDS011;61434;43.538;-5.688;2022-10-31T01:07:44;9.93;;;4.10;;
73219;SDS011;61434;43.538;-5.688;2022-10-31T01:10:10;9.95;;;4.20;;
73219;SDS011;61434;43.538;-5.688;2022-10-31T01:12:37;9.93;;;3.85;;
73219;SDS011;61434;43.538;-5.688;2022-10-31T01:15:07;9.20;;;3.73;;
73219;SDS011;61434;43.538;-5.688;2022-10-31T01:17:34;12.13;;;3.50;;
73219;SDS011;61434;43.538;-5.688;2022-10-31T01:20:00;12.23;;;3.30;;
73219;SDS011;61434;43.538;-5.688;2022-10-31T01:22:25;10.93;;;3.40;;
73219;SDS011;61434;43.538;-5.688;2022-10-31T01:24:51;9.32;;;3.15;;
73219;SDS011;61434;43.538;-5.688;2022-10-31T01:27:16;10.63;;;3.90;;
73219;SDS011;61434;43.538;-5.688;2022-10-31T01:29:42;9.47;;;4.00;;
73219;SDS011;61434;43.538;-5.688;2022-10-31T01:32:07;8.37;;;3.63;;
73219;SDS011;61434;43.538;-5.688;2022-10-31T01:34:33;9.70;;;3.60;;
73219;SDS011;61434;43.538;-5.688;2022-10-31T01:36:58;9.50;;;3.80;;
73219;SDS011;61434;43.538;-5.688;2022-10-31T01:39:23;10.30;;;4.40;;
73219;SDS011;61434;43.538;-5.688;2022-10-31T01:41:50;11.77;;;5.17;;
73219;SDS011;61434;43.538;-5.688;2022-10-31T01:49:13;12.02;;;4.07;;
73219;SDS011;61434;43.538;-5.688;2022-10-31T01:51:57;10.15;;;3.47;;
73219;SDS011;61434;43.538;-5.688;2022-10-31T01:54:34;8.75;;;3.63;;
73219;SDS011;61434;43.538;-5.688;2022-10-31T01:57:05;8.73;;;3.17;;
73219;SDS011;61434;43.538;-5.688;2022-10-31T01:59:34;8.23;;;2.90;;
73219;SDS011;61434;43.538;-5.688;2022-10-31T02:02:04;7.82;;;2.85;;
73219;SDS011;61434;43.538;-5.688;2022-10-31T02:04:31;9.45;;;3.90;;
73219;SDS011;61434;43.538;-5.688;2022-10-31T02:07:18;10.30;;;3.87;;
73219;SDS011;61434;43.538;-5.688;2022-10-31T02:09:49;7.68;;;3.40;;
73219;SDS011;61434;43.538;-5.688;2022-10-31T02:12:16;8.63;;;3.00;;
73219;SDS011;61434;43.538;-5.688;2022-10-31T02:14:43;10.17;;;3.60;;
73219;SDS011;61434;43.538;-5.688;2022-10-31T02:17:09;10.00;;;3.28;;
73219;SDS011;61434;43.538;-5.688;2022-10-31T02:19:52;11.47;;;3.50;;
73219;SDS011;61434;43.538;-5.688;2022-10-31T02:22:34;8.73;;;3.47;;
73219;SDS011;61434;43.538;-5.688;2022-10-31T02:30:25;11.75;;;4.90;;
73219;SDS011;61434;43.538;-5.688;2022-10-31T02:44:35;11.38;;;4.25;;
73219;SDS011;61434;43.538;-5.688;2022-10-31T02:47:24;8.97;;;3.90;;
73219;SDS011;61434;43.538;-5.688;2022-10-31T02:52:29;10.48;;;4.10;;
73219;SDS011;61434;43.538;-5.688;2022-10-31T02:54:56;10.00;;;3.67;;
73219;SDS011;61434;43.538;-5.688;2022-10-31T02:57:23;7.25;;;2.63;;
73219;SDS011;61434;43.538;-5.688;2022-10-31T02:59:56;10.40;;;4.33;;
73219;SDS011;61434;43.538;-5.688;2022-10-31T03:13:11;8.07;;;2.93;;
73219;SDS011;61434;43.538;-5.688;2022-10-31T03:15:51;7.20;;;2.95;;
73219;SDS011;61434;43.538;-5.688;2022-10-31T03:18:29;9.40;;;3.42;;
73219;SDS011;61434;43.538;-5.688;2022-10-31T03:21:08;8.30;;;2.78;;
73219;SDS011;61434;43.538;-5.688;2022-10-31T03:23:54;8.45;;;3.35;;
73219;SDS011;61434;43.538;-5.688;2022-10-31T03:26:21;10.43;;;3.50;;
73219;SDS011;61434;43.538;-5.688;2022-10-31T03:28:53;8.35;;;3.80;;
73219;SDS011;61434;43.538;-5.688;2022-10-31T03:31:25;11.88;;;3.85;;
73219;SDS011;61434;43.538;-5.688;2022-10-31T03:33:54;8.18;;;3.25;;
73219;SDS011;61434;43.538;-5.688;2022-10-31T03:36:23;10.65;;;3.70;;
73219;SDS011;61434;43.538;-5.688;2022-10-31T03:38:50;8.73;;;3.60;;
73219;SDS011;61434;43.538;-5.688;2022-10-31T03:41:18;12.27;;;4.50;;
73219;SDS011;61434;43.538;-5.688;2022-10-31T03:43:55;11.73;;;4.18;;
73219;SDS011;61434;43.538;-5.688;2022-10-31T03:46:24;10.13;;;3.88;;
73219;SDS011;61434;43.538;-5.688;2022-10-31T03:48:50;13.73;;;4.72;;
73219;SDS011;61434;43.538;-5.688;2022-10-31T03:51:24;10.90;;;5.03;;
73219;SDS011;61434;43.538;-5.688;2022-10-31T03:54:04;13.52;;;4.10;;
73219;SDS011;61434;43.538;-5.688;2022-10-31T03:59:18;11.43;;;4.20;;
73219;SDS011;61434;43.538;-5.688;2022-10-31T04:01:52;10.93;;;3.63;;
73219;SDS011;61434;43.538;-5.688;2022-10-31T04:04:22;10.10;;;3.90;;
73219;SDS011;61434;43.538;-5.688;2022-10-31T04:06:47;10.23;;;3.70;;
73219;SDS011;61434;43.538;-5.688;2022-10-31T04:09:15;13.07;;;4.67;;
73219;SDS011;61434;43.538;-5.688;2022-10-31T04:11:45;8.52;;;4.20;;
73219;SDS011;61434;43.538;-5.688;2022-10-31T04:14:13;10.18;;;3.70;;
73219;SDS011;61434;43.538;-5.688;2022-10-31T04:16:40;10.57;;;3.67;;
73219;SDS011;61434;43.538;-5.688;2022-10-31T04:19:09;10.13;;;4.13;;
73219;SDS011;61434;43.538;-5.688;2022-10-31T04:21:35;8.80;;;3.67;;
73219;SDS011;61434;43.538;-5.688;2022-10-31T04:24:00;9.10;;;3.80;;
73219;SDS011;61434;43.538;-5.688;2022-10-31T04:26:26;15.07;;;4.07;;
73219;SDS011;61434;43.538;-5.688;2022-10-31T04:28:51;8.73;;;3.80;;
73219;SDS011;61434;43.538;-5.688;2022-10-31T04:31:17;11.63;;;4.30;;
73219;SDS011;61434;43.538;-5.688;2022-10-31T04:33:42;10.30;;;4.83;;
73219;SDS011;61434;43.538;-5.688;2022-10-31T04:36:08;15.55;;;5.15;;
73219;SDS011;61434;43.538;-5.688;2022-10-31T04:38:34;10.93;;;4.67;;
73219;SDS011;61434;43.538;-5.688;2022-10-31T04:40:59;10.68;;;4.22;;
73219;SDS011;61434;43.538;-5.688;2022-10-31T04:43:25;13.07;;;4.30;;
73219;SDS011;61434;43.538;-5.688;2022-10-31T04:45:50;12.40;;;4.73;;
73219;SDS011;61434;43.538;-5.688;2022-10-31T04:48:16;12.37;;;4.60;;
73219;SDS011;61434;43.538;-5.688;2022-10-31T04:50:42;10.15;;;4.20;;
73219;SDS011;61434;43.538;-5.688;2022-10-31T04:53:07;11.05;;;5.00;;
73219;SDS011;61434;43.538;-5.688;2022-10-31T04:55:34;14.03;;;5.57;;
73219;SDS011;61434;43.538;-5.688;2022-10-31T04:58:00;12.60;;;6.15;;
73219;SDS011;61434;43.538;-5.688;2022-10-31T05:00:26;11.17;;;5.63;;
73219;SDS011;61434;43.538;-5.688;2022-10-31T05:02:52;12.33;;;5.20;;
73219;SDS011;61434;43.538;-5.688;2022-10-31T05:05:20;10.38;;;4.80;;
73219;SDS011;61434;43.538;-5.688;2022-10-31T05:07:48;11.80;;;5.80;;
73219;SDS011;61434;43.538;-5.688;2022-10-31T05:10:15;14.15;;;6.82;;
73219;SDS011;61434;43.538;-5.688;2022-10-31T05:12:50;19.17;;;9.52;;
73219;SDS011;61434;43.538;-5.688;2022-10-31T05:15:20;16.67;;;8.30;;
73219;SDS011;61434;43.538;-5.688;2022-10-31T05:17:47;15.07;;;6.50;;
73219;SDS011;61434;43.538;-5.688;2022-10-31T05:20:13;10.45;;;5.72;;
73219;SDS011;61434;43.538;-5.688;2022-10-31T05:22:44;12.45;;;6.00;;
73219;SDS011;61434;43.538;-5.688;2022-10-31T05:25:11;12.13;;;5.20;;
73219;SDS011;61434;43.538;-5.688;2022-10-31T05:27:40;10.73;;;4.90;;
73219;SDS011;61434;43.538;-5.688;2022-10-31T05:30:07;12.80;;;4.53;;
73219;SDS011;61434;43.538;-5.688;2022-10-31T05:32:37;12.70;;;5.40;;
73219;SDS011;61434;43.538;-5.688;2022-10-31T05:35:07;10.88;;;4.80;;
73219;SDS011;61434;43.538;-5.688;2022-10-31T05:37:36;9.75;;;4.30;;
73219;SDS011;61434;43.538;-5.688;2022-10-31T05:40:03;10.17;;;4.93;;
73219;SDS011;61434;43.538;-5.688;2022-10-31T05:42:29;14.98;;;5.07;;
73219;SDS011;61434;43.538;-5.688;2022-10-31T05:44:54;10.70;;;4.70;;
73219;SDS011;61434;43.538;-5.688;2022-10-31T05:47:20;13.57;;;5.00;;
73219;SDS011;61434;43.538;-5.688;2022-10-31T05:49:45;10.13;;;4.10;;
73219;SDS011;61434;43.538;-5.688;2022-10-31T05:52:11;11.87;;;4.03;;
73219;SDS011;61434;43.538;-5.688;2022-10-31T05:54:36;9.18;;;3.80;;
73219;SDS011;61434;43.538;-5.688;2022-10-31T05:57:02;10.17;;;4.50;;
73219;SDS011;61434;43.538;-5.688;2022-10-31T05:59:27;9.87;;;4.67;;
73219;SDS011;61434;43.538;-5.688;2022-10-31T06:01:53;11.43;;;4.53;;
73219;SDS011;61434;43.538;-5.688;2022-10-31T06:04:18;11.98;;;4.20;;
73219;SDS011;61434;43.538;-5.688;2022-10-31T06:06:44;11.47;;;4.07;;
73219;SDS011;61434;43.538;-5.688;2022-10-31T06:09:09;10.30;;;4.03;;
73219;SDS011;61434;43.538;-5.688;2022-10-31T06:11:35;10.77;;;4.20;;
73219;SDS011;61434;43.538;-5.688;2022-10-31T06:14:00;8.93;;;4.07;;
73219;SDS011;61434;43.538;-5.688;2022-10-31T06:16:26;10.67;;;4.43;;
73219;SDS011;61434;43.538;-5.688;2022-10-31T06:18:51;10.13;;;4.53;;
73219;SDS011;61434;43.538;-5.688;2022-10-31T06:21:17;10.15;;;4.20;;
73219;SDS011;61434;43.538;-5.688;2022-10-31T06:23:42;12.60;;;5.00;;
73219;SDS011;61434;43.538;-5.688;2022-10-31T06:26:08;10.07;;;4.60;;
73219;SDS011;61434;43.538;-5.688;2022-10-31T06:28:33;9.67;;;5.03;;
73219;SDS011;61434;43.538;-5.688;2022-10-31T06:30:59;9.77;;;3.38;;
73219;SDS011;61434;43.538;-5.688;2022-10-31T06:33:24;11.77;;;3.70;;
73219;SDS011;61434;43.538;-5.688;2022-10-31T06:35:50;9.97;;;3.70;;
73219;SDS011;61434;43.538;-5.688;2022-10-31T06:38:15;10.17;;;4.27;;
73219;SDS011;61434;43.538;-5.688;2022-10-31T06:40:40;10.05;;;4.03;;
73219;SDS011;61434;43.538;-5.688;2022-10-31T06:43:06;8.60;;;3.77;;
73219;SDS011;61434;43.538;-5.688;2022-10-31T06:45:31;10.97;;;4.13;;
73219;SDS011;61434;43.538;-5.688;2022-10-31T06:47:57;9.07;;;4.20;;
73219;SDS011;61434;43.538;-5.688;2022-10-31T06:50:23;8.38;;;3.85;;
73219;SDS011;61434;43.538;-5.688;2022-10-31T06:52:55;8.57;;;4.00;;
73219;SDS011;61434;43.538;-5.688;2022-10-31T06:55:22;10.87;;;4.27;;
73219;SDS011;61434;43.538;-5.688;2022-10-31T06:57:52;11.98;;;4.30;;
73219;SDS011;61434;43.538;-5.688;2022-10-31T07:00:22;9.52;;;4.32;;
73219;SDS011;61434;43.538;-5.688;2022-10-31T07:03:09;12.90;;;4.32;;
73219;SDS011;61434;43.538;-5.688;2022-10-31T07:05:36;11.43;;;4.25;;
73219;SDS011;61434;43.538;-5.688;2022-10-31T07:08:03;10.13;;;4.13;;
73219;SDS011;61434;43.538;-5.688;2022-10-31T07:10:32;9.90;;;3.95;;
73219;SDS011;61434;43.538;-5.688;2022-10-31T07:12:59;11.70;;;4.90;;
73219;SDS011;61434;43.538;-5.688;2022-10-31T07:15:26;11.38;;;4.50;;
73219;SDS011;61434;43.538;-5.688;2022-10-31T07:17:53;11.98;;;4.97;;
73219;SDS011;61434;43.538;-5.688;2022-10-31T07:20:19;10.30;;;4.90;;
73219;SDS011;61434;43.538;-5.688;2022-10-31T07:22:45;11.68;;;4.72;;
73219;SDS011;61434;43.538;-5.688;2022-10-31T07:25:10;13.07;;;5.43;;
73219;SDS011;61434;43.538;-5.688;2022-10-31T07:27:40;16.23;;;5.72;;
73219;SDS011;61434;43.538;-5.688;2022-10-31T07:30:07;11.65;;;5.72;;
73219;SDS011;61434;43.538;-5.688;2022-10-31T07:32:38;14.00;;;6.63;;
73219;SDS011;61434;43.538;-5.688;2022-10-31T07:35:06;15.93;;;6.57;;
73219;SDS011;61434;43.538;-5.688;2022-10-31T07:37:35;17.30;;;8.52;;
73219;SDS011;61434;43.538;-5.688;2022-10-31T07:40:01;20.20;;;8.80;;
73219;SDS011;61434;43.538;-5.688;2022-10-31T07:42:28;18.30;;;7.73;;
73219;SDS011;61434;43.538;-5.688;2022-10-31T07:44:53;19.10;;;7.82;;
73219;SDS011;61434;43.538;-5.688;2022-10-31T07:47:19;19.73;;;8.23;;
73219;SDS011;61434;43.538;-5.688;2022-10-31T07:49:44;17.40;;;8.10;;
73219;SDS011;61434;43.538;-5.688;2022-10-31T07:52:10;15.07;;;7.70;;
73219;SDS011;61434;43.538;-5.688;2022-10-31T07:54:35;16.85;;;8.18;;
73219;SDS011;61434;43.538;-5.688;2022-10-31T07:57:01;21.53;;;8.30;;
73219;SDS011;61434;43.538;-5.688;2022-10-31T07:59:26;18.43;;;7.03;;
73219;SDS011;61434;43.538;-5.688;2022-10-31T08:01:52;20.10;;;8.85;;
73219;SDS011;61434;43.538;-5.688;2022-10-31T08:04:18;20.17;;;8.43;;
73219;SDS011;61434;43.538;-5.688;2022-10-31T08:06:43;20.77;;;7.60;;
73219;SDS011;61434;43.538;-5.688;2022-10-31T08:09:09;18.77;;;6.93;;
73219;SDS011;61434;43.538;-5.688;2022-10-31T08:11:34;14.93;;;7.13;;
73219;SDS011;61434;43.538;-5.688;2022-10-31T08:14:00;20.63;;;7.90;;
73219;SDS011;61434;43.538;-5.688;2022-10-31T08:16:26;19.87;;;9.23;;
73219;SDS011;61434;43.538;-5.688;2022-10-31T08:18:52;19.35;;;7.95;;
73219;SDS011;61434;43.538;-5.688;2022-10-31T08:21:20;19.00;;;7.53;;
73219;SDS011;61434;43.538;-5.688;2022-10-31T08:23:46;19.95;;;8.02;;
73219;SDS011;61434;43.538;-5.688;2022-10-31T08:26:11;20.30;;;7.80;;
73219;SDS011;61434;43.538;-5.688;2022-10-31T08:28:37;22.92;;;10.00;;
73219;SDS011;61434;43.538;-5.688;2022-10-31T08:31:02;26.30;;;10.93;;
73219;SDS011;61434;43.538;-5.688;2022-10-31T08:33:28;28.57;;;10.60;;
73219;SDS011;61434;43.538;-5.688;2022-10-31T08:35:53;21.47;;;10.03;;
73219;SDS011;61434;43.538;-5.688;2022-10-31T08:38:19;22.27;;;10.20;;
73219;SDS011;61434;43.538;-5.688;2022-10-31T08:40:47;22.13;;;9.57;;
73219;SDS011;61434;43.538;-5.688;2022-10-31T08:43:15;26.77;;;9.25;;
73219;SDS011;61434;43.538;-5.688;2022-10-31T08:45:41;24.17;;;9.70;;
73219;SDS011;61434;43.538;-5.688;2022-10-31T08:48:12;22.40;;;8.07;;
73219;SDS011;61434;43.538;-5.688;2022-10-31T08:50:39;17.38;;;7.75;;
73219;SDS011;61434;43.538;-5.688;2022-10-31T08:53:07;44.10;;;10.00;;
73219;SDS011;61434;43.538;-5.688;2022-10-31T08:55:36;25.67;;;8.00;;
73219;SDS011;61434;43.538;-5.688;2022-10-31T08:58:04;21.92;;;7.22;;
73219;SDS011;61434;43.538;-5.688;2022-10-31T09:00:31;23.97;;;6.80;;
73219;SDS011;61434;43.538;-5.688;2022-10-31T09:02:58;26.55;;;8.05;;
73219;SDS011;61434;43.538;-5.688;2022-10-31T09:05:34;22.58;;;7.85;;
73219;SDS011;61434;43.538;-5.688;2022-10-31T09:08:00;26.23;;;8.52;;
73219;SDS011;61434;43.538;-5.688;2022-10-31T09:10:28;21.63;;;7.53;;
73219;SDS011;61434;43.538;-5.688;2022-10-31T09:12:56;18.48;;;8.00;;
73219;SDS011;61434;43.538;-5.688;2022-10-31T09:15:23;22.88;;;9.43;;
73219;SDS011;61434;43.538;-5.688;2022-10-31T09:17:50;16.00;;;7.03;;
73219;SDS011;61434;43.538;-5.688;2022-10-31T09:20:15;13.03;;;5.20;;
73219;SDS011;61434;43.538;-5.688;2022-10-31T09:22:41;15.00;;;5.70;;
73219;SDS011;61434;43.538;-5.688;2022-10-31T09:25:06;15.67;;;6.07;;
73219;SDS011;61434;43.538;-5.688;2022-10-31T09:27:32;20.05;;;6.57;;
73219;SDS011;61434;43.538;-5.688;2022-10-31T09:29:58;25.57;;;8.80;;
73219;SDS011;61434;43.538;-5.688;2022-10-31T09:32:23;30.63;;;11.40;;
73219;SDS011;61434;43.538;-5.688;2022-10-31T09:34:49;32.70;;;10.87;;
73219;SDS011;61434;43.538;-5.688;2022-10-31T09:37:14;39.00;;;12.70;;
73219;SDS011;61434;43.538;-5.688;2022-10-31T09:39:40;32.60;;;13.93;;
73219;SDS011;61434;43.538;-5.688;2022-10-31T09:45:16;31.20;;;13.40;;
73219;SDS011;61434;43.538;-5.688;2022-10-31T09:50:53;22.27;;;8.80;;
73219;SDS011;61434;43.538;-5.688;2022-10-31T09:53:37;22.48;;;7.82;;
73219;SDS011;61434;43.538;-5.688;2022-10-31T09:56:16;22.83;;;8.55;;
73219;SDS011;61434;43.538;-5.688;2022-10-31T09:58:45;18.50;;;8.77;;
73219;SDS011;61434;43.538;-5.688;2022-10-31T10:04:05;26.73;;;11.32;;
73219;SDS011;61434;43.538;-5.688;2022-10-31T10:06:44;33.22;;;16.85;;
73219;SDS011;61434;43.538;-5.688;2022-10-31T10:09:11;29.10;;;13.93;;
73219;SDS011;61434;43.538;-5.688;2022-10-31T10:17:05;12.17;;;5.17;;
73219;SDS011;61434;43.538;-5.688;2022-10-31T10:30:14;11.45;;;4.25;;
73219;SDS011;61434;43.538;-5.688;2022-10-31T10:35:40;12.57;;;4.40;;
73219;SDS011;61434;43.538;-5.688;2022-10-31T10:40:44;19.42;;;8.10;;
73219;SDS011;61434;43.538;-5.688;2022-10-31T10:45:53;17.02;;;8.18;;
73219;SDS011;61434;43.538;-5.688;2022-10-31T10:49:26;12.90;;;4.07;;
73219;SDS011;61434;43.538;-5.688;2022-10-31T10:51:46;10.73;;;3.50;;
73219;SDS011;61434;43.538;-5.688;2022-10-31T10:59:46;8.80;;;3.60;;
73219;SDS011;61434;43.538;-5.688;2022-10-31T11:02:16;11.87;;;5.40;;
73219;SDS011;61434;43.538;-5.688;2022-10-31T11:04:43;18.70;;;7.97;;
73219;SDS011;61434;43.538;-5.688;2022-10-31T11:07:13;21.17;;;8.00;;
73219;SDS011;61434;43.538;-5.688;2022-10-31T11:09:39;18.00;;;7.53;;
73219;SDS011;61434;43.538;-5.688;2022-10-31T11:12:08;13.60;;;5.60;;
73219;SDS011;61434;43.538;-5.688;2022-10-31T11:14:48;11.98;;;3.90;;
73219;SDS011;61434;43.538;-5.688;2022-10-31T11:17:38;15.07;;;4.30;;
73219;SDS011;61434;43.538;-5.688;2022-10-31T11:22:42;10.57;;;3.73;;
73219;SDS011;61434;43.538;-5.688;2022-10-31T11:25:30;12.05;;;3.25;;
73219;SDS011;61434;43.538;-5.688;2022-10-31T11:27:59;8.55;;;2.90;;
73219;SDS011;61434;43.538;-5.688;2022-10-31T11:30:26;7.97;;;2.80;;
73219;SDS011;61434;43.538;-5.688;2022-10-31T11:32:52;8.63;;;2.58;;
73219;SDS011;61434;43.538;-5.688;2022-10-31T11:35:18;7.23;;;2.43;;
73219;SDS011;61434;43.538;-5.688;2022-10-31T11:37:47;5.60;;;1.90;;
73219;SDS011;61434;43.538;-5.688;2022-10-31T11:40:15;7.22;;;2.10;;
73219;SDS011;61434;43.538;-5.688;2022-10-31T11:42:51;6.32;;;2.15;;
73219;SDS011;61434;43.538;-5.688;2022-10-31T11:47:50;6.47;;;2.00;;
73219;SDS011;61434;43.538;-5.688;2022-10-31T11:50:22;6.20;;;1.73;;
73219;SDS011;61434;43.538;-5.688;2022-10-31T11:52:50;5.68;;;1.73;;
73219;SDS011;61434;43.538;-5.688;2022-10-31T11:57:59;7.43;;;1.90;;
73219;SDS011;61434;43.538;-5.688;2022-10-31T12:05:39;5.83;;;2.33;;
73219;SDS011;61434;43.538;-5.688;2022-10-31T12:08:09;7.35;;;2.20;;
73219;SDS011;61434;43.538;-5.688;2022-10-31T12:10:45;5.95;;;2.40;;
73219;SDS011;61434;43.538;-5.688;2022-10-31T12:16:02;10.48;;;2.15;;
73219;SDS011;61434;43.538;-5.688;2022-10-31T12:18:40;11.00;;;3.60;;
73219;SDS011;61434;43.538;-5.688;2022-10-31T12:21:17;8.98;;;3.80;;
73219;SDS011;61434;43.538;-5.688;2022-10-31T12:53:11;10.50;;;3.63;;
73219;SDS011;61434;43.538;-5.688;2022-10-31T12:58:35;12.07;;;5.37;;
73219;SDS011;61434;43.538;-5.688;2022-10-31T13:01:16;8.43;;;3.70;;
73219;SDS011;61434;43.538;-5.688;2022-10-31T13:06:30;7.32;;;2.50;;
73219;SDS011;61434;43.538;-5.688;2022-10-31T13:09:05;7.53;;;2.40;;
73219;SDS011;61434;43.538;-5.688;2022-10-31T13:11:38;9.10;;;2.20;;
73219;SDS011;61434;43.538;-5.688;2022-10-31T13:14:23;9.25;;;2.30;;
73219;SDS011;61434;43.538;-5.688;2022-10-31T13:16:52;7.03;;;2.00;;
73219;SDS011;61434;43.538;-5.688;2022-10-31T13:24:49;7.63;;;2.40;;
73219;SDS011;61434;43.538;-5.688;2022-10-31T13:30:22;9.95;;;2.75;;
73219;SDS011;61434;43.538;-5.688;2022-10-31T13:38:29;12.37;;;2.70;;
73219;SDS011;61434;43.538;-5.688;2022-10-31T13:46:40;7.97;;;3.42;;
73219;SDS011;61434;43.538;-5.688;2022-10-31T13:59:57;5.32;;;1.50;;
73219;SDS011;61434;43.538;-5.688;2022-10-31T14:02:31;5.65;;;1.50;;
73219;SDS011;61434;43.538;-5.688;2022-10-31T14:05:04;5.40;;;1.70;;
73219;SDS011;61434;43.538;-5.688;2022-10-31T14:07:43;6.65;;;1.75;;
73219;SDS011;61434;43.538;-5.688;2022-10-31T14:13:15;5.55;;;1.60;;
73219;SDS011;61434;43.538;-5.688;2022-10-31T14:16:00;5.63;;;1.50;;
73219;SDS011;61434;43.538;-5.688;2022-10-31T14:18:34;5.83;;;1.50;;
73219;SDS011;61434;43.538;-5.688;2022-10-31T14:23:52;6.00;;;1.30;;
73219;SDS011;61434;43.538;-5.688;2022-10-31T14:28:52;5.53;;;1.30;;
73219;SDS011;61434;43.538;-5.688;2022-10-31T14:34:20;5.30;;;1.40;;
73219;SDS011;61434;43.538;-5.688;2022-10-31T14:39:36;15.88;;;2.20;;
73219;SDS011;61434;43.538;-5.688;2022-10-31T14:42:12;21.00;;;2.67;;
73219;SDS011;61434;43.538;-5.688;2022-10-31T14:45:15;19.70;;;2.77;;
73219;SDS011;61434;43.538;-5.688;2022-10-31T14:50:40;12.45;;;2.40;;
73219;SDS011;61434;43.538;-5.688;2022-10-31T14:53:21;16.05;;;2.42;;
73219;SDS011;61434;43.538;-5.688;2022-10-31T14:55:51;14.60;;;2.40;;
73219;SDS011;61434;43.538;-5.688;2022-10-31T14:58:40;16.57;;;2.47;;
73219;SDS011;61434;43.538;-5.688;2022-10-31T15:01:21;13.38;;;2.08;;
73219;SDS011;61434;43.538;-5.688;2022-10-31T15:04:07;15.43;;;2.65;;
73219;SDS011;61434;43.538;-5.688;2022-10-31T15:06:41;12.38;;;2.45;;
73219;SDS011;61434;43.538;-5.688;2022-10-31T15:09:22;14.95;;;2.15;;
73219;SDS011;61434;43.538;-5.688;2022-10-31T15:11:49;21.20;;;2.80;;
73219;SDS011;61434;43.538;-5.688;2022-10-31T15:14:22;15.75;;;2.60;;
73219;SDS011;61434;43.538;-5.688;2022-10-31T15:16:48;15.50;;;2.93;;
73219;SDS011;61434;43.538;-5.688;2022-10-31T15:19:16;14.63;;;2.55;;
73219;SDS011;61434;43.538;-5.688;2022-10-31T15:21:47;14.25;;;2.20;;
73219;SDS011;61434;43.538;-5.688;2022-10-31T15:24:15;12.30;;;2.20;;
73219;SDS011;61434;43.538;-5.688;2022-10-31T15:26:44;12.55;;;2.35;;
73219;SDS011;61434;43.538;-5.688;2022-10-31T15:29:16;18.50;;;2.47;;
73219;SDS011;61434;43.538;-5.688;2022-10-31T15:31:49;14.35;;;2.03;;
73219;SDS011;61434;43.538;-5.688;2022-10-31T15:34:16;13.77;;;2.30;;
73219;SDS011;61434;43.538;-5.688;2022-10-31T15:36:52;13.60;;;2.78;;
73219;SDS011;61434;43.538;-5.688;2022-10-31T15:39:18;12.93;;;2.20;;
73219;SDS011;61434;43.538;-5.688;2022-10-31T15:44:15;10.60;;;2.30;;
73219;SDS011;61434;43.538;-5.688;2022-10-31T15:49:37;14.20;;;2.47;;
73219;SDS011;61434;43.538;-5.688;2022-10-31T15:55:03;13.23;;;2.30;;
73219;SDS011;61434;43.538;-5.688;2022-10-31T15:57:28;17.80;;;2.20;;
73219;SDS011;61434;43.538;-5.688;2022-10-31T15:59:55;12.82;;;2.00;;
73219;SDS011;61434;43.538;-5.688;2022-10-31T16:02:22;12.18;;;2.47;;
73219;SDS011;61434;43.538;-5.688;2022-10-31T16:04:54;13.53;;;1.83;;
73219;SDS011;61434;43.538;-5.688;2022-10-31T16:07:19;13.27;;;2.25;;
73219;SDS011;61434;43.538;-5.688;2022-10-31T16:12:16;11.52;;;2.35;;
73219;SDS011;61434;43.538;-5.688;2022-10-31T16:14:41;15.57;;;2.35;;
73219;SDS011;61434;43.538;-5.688;2022-10-31T16:17:11;14.47;;;2.70;;
73219;SDS011;61434;43.538;-5.688;2022-10-31T16:20:00;11.63;;;2.03;;
73219;SDS011;61434;43.538;-5.688;2022-10-31T16:22:30;15.48;;;2.00;;
73219;SDS011;61434;43.538;-5.688;2022-10-31T16:27:27;12.63;;;2.13;;
73219;SDS011;61434;43.538;-5.688;2022-10-31T16:29:56;10.97;;;1.90;;
73219;SDS011;61434;43.538;-5.688;2022-10-31T16:34:59;12.80;;;1.77;;
73219;SDS011;61434;43.538;-5.688;2022-10-31T16:37:37;15.30;;;2.00;;
73219;SDS011;61434;43.538;-5.688;2022-10-31T16:40:03;10.82;;;1.70;;
73219;SDS011;61434;43.538;-5.688;2022-10-31T16:42:29;12.63;;;2.63;;
73219;SDS011;61434;43.538;-5.688;2022-10-31T16:44:55;11.88;;;2.10;;
73219;SDS011;61434;43.538;-5.688;2022-10-31T16:47:20;13.10;;;1.80;;
73219;SDS011;61434;43.538;-5.688;2022-10-31T16:49:46;13.17;;;1.97;;
73219;SDS011;61434;43.538;-5.688;2022-10-31T16:52:14;15.43;;;2.22;;
73219;SDS011;61434;43.538;-5.688;2022-10-31T16:54:40;13.95;;;1.90;;
73219;SDS011;61434;43.538;-5.688;2022-10-31T16:57:05;15.60;;;1.80;;
73219;SDS011;61434;43.538;-5.688;2022-10-31T16:59:31;14.10;;;2.10;;
73219;SDS011;61434;43.538;-5.688;2022-10-31T17:02:00;12.05;;;1.90;;
73219;SDS011;61434;43.538;-5.688;2022-10-31T17:04:28;17.35;;;2.60;;
73219;SDS011;61434;43.538;-5.688;2022-10-31T17:06:54;15.43;;;2.20;;
73219;SDS011;61434;43.538;-5.688;2022-10-31T17:09:19;14.60;;;2.10;;
73219;SDS011;61434;43.538;-5.688;2022-10-31T17:11:45;13.18;;;2.03;;
73219;SDS011;61434;43.538;-5.688;2022-10-31T17:14:15;15.30;;;1.80;;
73219;SDS011;61434;43.538;-5.688;2022-10-31T17:16:42;14.50;;;2.00;;
73219;SDS011;61434;43.538;-5.688;2022-10-31T17:19:11;18.88;;;2.13;;
73219;SDS011;61434;43.538;-5.688;2022-10-31T17:21:37;15.18;;;2.33;;
73219;SDS011;61434;43.538;-5.688;2022-10-31T17:24:03;14.00;;;2.43;;
73219;SDS011;61434;43.538;-5.688;2022-10-31T17:26:29;14.20;;;2.08;;
73219;SDS011;61434;43.538;-5.688;2022-10-31T17:28:55;14.83;;;2.30;;
73219;SDS011;61434;43.538;-5.688;2022-10-31T17:31:28;13.52;;;2.33;;
73219;SDS011;61434;43.538;-5.688;2022-10-31T17:33:55;19.70;;;2.50;;
73219;SDS011;61434;43.538;-5.688;2022-10-31T17:36:21;20.90;;;2.73;;
73219;SDS011;61434;43.538;-5.688;2022-10-31T17:38:46;14.40;;;2.55;;
73219;SDS011;61434;43.538;-5.688;2022-10-31T17:41:12;17.23;;;2.30;;
73219;SDS011;61434;43.538;-5.688;2022-10-31T17:43:37;17.27;;;2.20;;
73219;SDS011;61434;43.538;-5.688;2022-10-31T17:46:03;17.93;;;2.33;;